Time;durP1;ratioP1;P1;durP2;ratioP2;P2;SDS_P1;SDS_P2;PMS_P1;PMS_P2;Temp;Humidity;BMP_temperature;BMP_pressure;BME280_temperature;BME280_humidity;BME280_pressure;Samples;Min_cycle;Max_cycle;Signal;HPM_P1;HPM_P2
2021/07/01 00:02:19;;;;;;;;;10.00;9.75;;;;;18.12;60.11;101381.28;5053320;28;45352;-70
2021/07/01 00:04:44;;;;;;;;;13.25;11.50;;;;;18.13;60.18;101385.63;5053413;28;45415;-70
2021/07/01 00:07:10;;;;;;;;;12.50;11.75;;;;;18.15;60.00;101377.63;5053932;28;45471;-70
2021/07/01 00:09:35;;;;;;;;;12.75;11.75;;;;;18.16;60.04;101382.88;5054434;28;45389;-70
2021/07/01 00:12:01;;;;;;;;;9.00;9.00;;;;;18.17;60.02;101386.38;5053694;28;45502;-70
2021/07/01 00:14:26;;;;;;;;;15.50;11.50;;;;;18.16;59.92;101382.88;5053152;28;45303;-71
2021/07/01 00:16:53;;;;;;;;;15.50;11.00;;;;;18.17;59.86;101386.38;5053554;28;45470;-70
2021/07/01 00:19:19;;;;;;;;;7.00;7.00;;;;;18.16;59.96;101376.69;5053317;28;45442;-70
2021/07/01 00:21:45;;;;;;;;;11.00;9.25;;;;;18.16;59.98;101382.00;5053261;28;45359;-71
2021/07/01 00:24:10;;;;;;;;;10.50;10.25;;;;;18.14;59.65;101384.72;5053281;28;45505;-71
2021/07/01 00:26:37;;;;;;;;;11.50;11.00;;;;;18.13;60.06;101382.13;5053201;28;45379;-70
2021/07/01 00:29:02;;;;;;;;;11.00;9.25;;;;;18.13;60.22;101385.63;5052990;28;45359;-70
2021/07/01 00:31:27;;;;;;;;;11.00;10.25;;;;;18.14;60.25;101379.44;5053097;28;45390;-70
2021/07/01 00:33:53;;;;;;;;;11.75;10.50;;;;;18.12;60.01;101386.56;5053380;28;45268;-70
2021/07/01 00:36:18;;;;;;;;;11.50;10.00;;;;;18.11;60.22;101390.13;5053633;28;46302;-71
2021/07/01 00:38:44;;;;;;;;;14.25;10.25;;;;;18.09;59.97;101383.16;5053293;28;45541;-70
2021/07/01 00:41:09;;;;;;;;;6.25;6.25;;;;;18.03;59.94;101385.16;5053280;28;45733;-70
2021/07/01 00:43:34;;;;;;;;;9.25;8.00;;;;;17.98;60.02;101381.84;5052545;28;45502;-70
2021/07/01 00:46:00;;;;;;;;;8.00;8.00;;;;;17.96;60.14;101386.31;5053378;28;46059;-70
2021/07/01 00:48:25;;;;;;;;;12.00;12.00;;;;;17.95;60.24;101389.06;5053585;28;45409;-70
2021/07/01 00:50:51;;;;;;;;;7.75;7.00;;;;;17.93;60.23;101383.81;5053220;28;45508;-70
2021/07/01 00:53:17;;;;;;;;;8.50;7.50;;;;;17.94;60.05;101382.03;5053107;28;45409;-70
2021/07/01 00:55:42;;;;;;;;;8.75;8.00;;;;;17.92;60.18;101384.72;5012840;28;1168053;-69
2021/07/01 00:58:08;;;;;;;;;9.00;9.00;;;;;17.91;60.42;101384.81;5038205;28;45333;-70
2021/07/01 01:03:01;;;;;;;;;13.25;9.50;;;;;17.82;60.44;101391.31;5054416;28;45648;-70
2021/07/01 01:05:27;;;;;;;;;8.25;8.25;;;;;17.80;60.49;101385.19;5053820;28;47376;-70
2021/07/01 01:07:52;;;;;;;;;8.75;8.75;;;;;17.77;60.57;101387.97;5054425;28;45458;-70
2021/07/01 01:10:19;;;;;;;;;11.50;9.25;;;;;17.74;60.73;101386.31;5054622;28;45568;-70
2021/07/01 01:12:44;;;;;;;;;9.50;7.75;;;;;17.72;60.41;101382.84;5054432;28;45457;-70
2021/07/01 01:15:10;;;;;;;;;10.00;8.50;;;;;17.72;60.59;101384.66;5054746;28;45424;-70
2021/07/01 01:17:35;;;;;;;;;10.75;8.75;;;;;17.74;60.73;101386.31;5057744;28;45456;-70
2021/07/01 01:20:02;;;;;;;;;10.75;10.75;;;;;17.73;61.08;101384.59;5057829;28;45389;-70
2021/07/01 01:22:27;;;;;;;;;14.00;9.75;;;;;17.73;60.58;101381.06;5057770;28;45450;-70
2021/07/01 01:24:53;;;;;;;;;8.00;8.00;;;;;17.73;60.66;101381.94;5057913;28;46221;-70
2021/07/01 01:27:21;;;;;;;;;10.00;10.00;;;;;17.74;60.56;101386.31;5057842;28;45410;-70
2021/07/01 01:29:46;;;;;;;;;13.50;10.25;;;;;17.72;60.84;101388.16;5057812;28;45512;-69
2021/07/01 01:32:12;;;;;;;;;11.50;10.00;;;;;17.72;61.16;101377.56;5057473;28;45446;-70
2021/07/01 01:34:37;;;;;;;;;11.00;11.00;;;;;17.70;61.15;101379.41;5057704;28;45363;-70
2021/07/01 01:37:02;;;;;;;;;14.25;11.50;;;;;17.69;61.02;101376.84;5057746;28;45366;-70
2021/07/01 01:39:28;;;;;;;;;13.00;10.75;;;;;17.69;61.20;101377.69;5058290;28;45308;-70
2021/07/01 01:41:53;;;;;;;;;12.25;12.25;;;;;17.71;61.37;101380.25;5057201;28;45379;-70
2021/07/01 01:44:18;;;;;;;;;12.25;12.25;;;;;17.70;61.42;101387.34;5057415;28;46350;-70
2021/07/01 01:46:44;;;;;;;;;14.00;12.25;;;;;17.71;61.48;101382.91;5057183;28;45434;-70
2021/07/01 01:49:10;;;;;;;;;15.75;13.75;;;;;17.68;61.27;101377.72;5057636;28;48020;-71
2021/07/01 01:51:37;;;;;;;;;12.00;12.00;;;;;17.65;61.57;101376.06;5053679;28;45373;-70
2021/07/01 01:54:07;;;;;;;;;11.50;11.50;;;;;17.59;61.75;101382.47;5056848;28;46088;-71
2021/07/01 01:56:45;;;;;;;;;16.75;12.00;;;;;17.57;61.81;101380.81;5056495;28;45417;-70
2021/07/01 01:59:11;;;;;;;;;15.75;13.25;;;;;17.54;61.94;101383.56;5056988;28;45893;-70
2021/07/01 02:01:36;;;;;;;;;13.00;12.50;;;;;17.47;62.34;101380.31;5056994;28;45418;-70
2021/07/01 02:04:03;;;;;;;;;16.50;12.25;;;;;17.43;62.52;101367.25;5057008;28;45992;-70
2021/07/01 02:06:28;;;;;;;;;17.00;13.00;;;;;17.38;62.82;101365.66;5057545;28;45389;-70
2021/07/01 02:08:54;;;;;;;;;9.50;9.25;;;;;17.37;62.69;101368.34;5056763;28;45395;-70
2021/07/01 02:11:19;;;;;;;;;14.75;12.75;;;;;17.36;62.54;101370.13;5056834;28;45479;-70
2021/07/01 02:13:45;;;;;;;;;16.75;13.75;;;;;17.34;62.77;101371.97;5056883;28;45524;-70
2021/07/01 02:16:10;;;;;;;;;15.25;13.00;;;;;17.33;62.81;101372.91;5057164;28;45332;-70
2021/07/01 02:18:36;;;;;;;;;18.75;14.75;;;;;17.31;62.58;101372.09;5053181;28;45485;-70
2021/07/01 02:21:02;;;;;;;;;16.00;13.75;;;;;17.28;63.02;101374.88;5056974;28;45739;-70
2021/07/01 02:23:28;;;;;;;;;13.50;13.50;;;;;17.27;62.91;101370.47;5056733;28;46332;-70
2021/07/01 02:25:53;;;;;;;;;16.50;15.50;;;;;17.26;63.19;101362.63;5055658;28;45405;-70
2021/07/01 02:28:18;;;;;;;;;12.50;12.50;;;;;17.25;63.31;101366.16;5057136;28;45452;-70
2021/07/01 02:30:44;;;;;;;;;16.00;13.75;;;;;17.23;63.20;101368.88;5057354;28;45410;-70
2021/07/01 02:33:09;;;;;;;;;15.25;14.00;;;;;17.19;63.16;101370.78;5056917;28;46280;-70
2021/07/01 02:35:34;;;;;;;;;16.75;13.75;;;;;17.17;63.16;101364.69;5056332;28;45556;-70
2021/07/01 02:38:00;;;;;;;;;22.00;21.75;;;;;17.15;63.36;101371.81;5056836;28;45473;-70
2021/07/01 02:40:26;;;;;;;;;15.75;11.25;;;;;17.13;63.41;101368.34;5056428;28;45529;-70
2021/07/01 02:42:52;;;;;;;;;14.50;13.75;;;;;17.12;63.49;101371.06;5056486;28;46416;-70
2021/07/01 02:45:17;;;;;;;;;17.00;12.25;;;;;17.11;63.77;101362.28;5057193;28;45550;-70
2021/07/01 02:47:43;;;;;;;;;14.25;13.75;;;;;17.12;63.91;101360.50;5056360;28;45439;-70
2021/07/01 02:50:09;;;;;;;;;13.50;10.75;;;;;17.11;63.65;101361.38;5056376;28;45531;-69
2021/07/01 02:52:34;;;;;;;;;15.50;13.75;;;;;17.11;63.82;101356.09;5056263;28;46552;-70
2021/07/01 02:55:00;;;;;;;;;12.25;12.25;;;;;17.11;63.88;101362.28;5055618;28;45371;-70
2021/07/01 02:57:25;;;;;;;;;16.00;12.25;;;;;17.07;63.89;101355.38;5056801;28;45454;-70
2021/07/01 02:59:50;;;;;;;;;14.75;13.75;;;;;17.04;64.09;101351.97;5055888;28;45404;-71
2021/07/01 03:02:16;;;;;;;;;12.00;10.00;;;;;17.01;64.19;101349.44;5055903;28;45974;-70
2021/07/01 03:04:41;;;;;;;;;14.25;10.50;;;;;16.97;64.29;101362.78;5056510;28;45561;-70
2021/07/01 03:07:07;;;;;;;;;14.75;12.75;;;;;16.96;64.43;101354.91;5056664;28;45370;-71
2021/07/01 03:09:32;;;;;;;;;14.25;12.25;;;;;16.95;64.47;101358.47;5056582;28;45395;-70
2021/07/01 03:11:57;;;;;;;;;17.00;14.50;;;;;16.97;64.34;101356.59;5055937;28;46133;-71
2021/07/01 03:14:23;;;;;;;;;12.25;12.25;;;;;16.98;64.47;101353.06;5055833;28;45319;-71
2021/07/01 03:16:48;;;;;;;;;15.50;12.75;;;;;17.01;64.46;101354.72;5055804;28;45331;-70
2021/07/01 03:19:13;;;;;;;;;13.25;11.75;;;;;17.01;64.37;101355.59;5055720;28;45281;-71
2021/07/01 03:21:39;;;;;;;;;15.25;15.25;;;;;17.01;64.36;101350.28;5054661;28;47017;-70
2021/07/01 03:24:04;;;;;;;;;15.25;15.25;;;;;17.00;64.47;101342.44;5055130;28;45446;-70
2021/07/01 03:26:30;;;;;;;;;15.00;14.25;;;;;17.02;64.56;101353.78;5055224;28;45487;-70
2021/07/01 03:28:55;;;;;;;;;14.00;14.00;;;;;17.00;64.56;101353.03;5055739;28;45502;-71
2021/07/01 03:31:20;;;;;;;;;12.75;12.75;;;;;16.97;64.55;101349.56;5055651;28;46475;-71
2021/07/01 03:33:46;;;;;;;;;11.00;11.00;;;;;16.97;64.64;101348.69;5055875;28;45319;-71
2021/07/01 03:36:11;;;;;;;;;13.00;12.75;;;;;16.93;64.70;101349.72;5056095;28;45705;-70
2021/07/01 03:38:37;;;;;;;;;16.00;14.25;;;;;16.89;64.80;101353.41;5053874;28;45332;-70
2021/07/01 03:41:06;;;;;;;;;17.50;17.00;;;;;16.85;65.01;101350.03;5055054;28;45924;-70
2021/07/01 03:43:34;;;;;;;;;15.50;13.50;;;;;16.80;64.87;101351.94;5055405;28;45414;-71
2021/07/01 03:45:59;;;;;;;;;13.75;13.25;;;;;16.77;65.02;101347.59;5055393;28;45703;-70
2021/07/01 03:48:25;;;;;;;;;14.75;13.50;;;;;16.72;65.00;101346.91;5055604;28;45453;-70
2021/07/01 03:50:50;;;;;;;;;20.25;14.75;;;;;16.69;65.41;101360.25;5054905;28;45496;-70
2021/07/01 03:53:15;;;;;;;;;17.75;16.75;;;;;16.64;65.41;101353.41;5054392;28;45395;-69
2021/07/01 03:55:41;;;;;;;;;14.25;13.00;;;;;16.61;65.17;101357.00;5054647;28;45837;-69
2021/07/01 03:58:06;;;;;;;;;21.75;15.50;;;;;16.58;65.25;101357.09;5054444;28;45315;-69
2021/07/01 04:00:32;;;;;;;;;19.75;16.00;;;;;16.52;65.18;101352.91;5055457;28;46155;-69
2021/07/01 04:03:01;;;;;;;;;15.75;14.25;;;;;16.50;65.45;101356.53;5054926;28;45547;-69
2021/07/01 04:05:26;;;;;;;;;14.75;13.50;;;;;16.46;65.77;101350.47;5054674;28;45496;-69
2021/07/01 04:07:52;;;;;;;;;18.50;15.00;;;;;16.46;65.63;101347.81;5054595;28;45411;-69
2021/07/01 04:10:18;;;;;;;;;16.25;14.25;;;;;16.45;65.87;101348.75;5052795;28;46395;-69
2021/07/01 04:12:44;;;;;;;;;19.25;14.50;;;;;16.43;65.61;101347.94;5054574;28;45427;-69
2021/07/01 04:15:10;;;;;;;;;16.25;14.00;;;;;16.40;65.69;101345.41;5054720;27;45711;-69
2021/07/01 04:17:36;;;;;;;;;18.00;16.00;;;;;16.41;65.72;101354.19;5054486;28;45610;-69
2021/07/01 04:20:06;;;;;;;;;19.50;18.50;;;;;16.40;65.70;101353.34;5054364;28;46270;-70
2021/07/01 04:22:31;;;;;;;;;13.75;13.75;;;;;16.42;65.89;101353.28;5053879;28;45195;-69
2021/07/01 04:24:56;;;;;;;;;20.75;18.25;;;;;16.41;65.69;101354.19;5053862;28;45280;-69
2021/07/01 04:27:22;;;;;;;;;19.25;16.25;;;;;16.39;65.77;101356.88;5054556;28;45249;-70
2021/07/01 04:29:47;;;;;;;;;30.00;16.50;;;;;16.38;65.83;101355.19;5053409;28;45908;-70
2021/07/01 04:32:12;;;;;;;;;15.00;12.25;;;;;16.39;66.26;101361.31;5053655;28;45550;-69
2021/07/01 04:34:38;;;;;;;;;21.50;19.00;;;;;16.40;66.18;101361.28;5054257;28;45379;-69
2021/07/01 04:37:04;;;;;;;;;23.75;21.25;;;;;16.44;66.04;101365.50;5054050;28;45644;-70
2021/07/01 04:39:30;;;;;;;;;17.50;15.00;;;;;16.47;66.24;101361.91;5054125;28;46301;-70
2021/07/01 04:41:56;;;;;;;;;15.25;14.00;;;;;16.49;66.09;101368.88;5053622;28;45358;-70
2021/07/01 04:44:21;;;;;;;;;17.50;17.50;;;;;16.50;66.11;101367.97;5053920;28;45623;-70
2021/07/01 04:46:47;;;;;;;;;15.75;14.25;;;;;16.51;66.18;101372.31;5053570;28;45485;-70
2021/07/01 04:49:12;;;;;;;;;17.75;15.00;;;;;16.53;66.11;101377.56;5052165;28;48642;-70
2021/07/01 04:51:37;;;;;;;;;18.00;13.50;;;;;16.54;66.13;101380.16;5053499;28;45371;-69
2021/07/01 04:54:03;;;;;;;;;9.00;9.00;;;;;16.53;65.85;101372.28;5053429;28;45410;-69
2021/07/01 04:56:43;;;;;;;;;23.00;15.50;;;;;16.53;65.75;101374.91;5053613;28;45375;-70
2021/07/01 04:59:12;;;;;;;;;17.25;13.75;;;;;16.55;65.90;101373.94;5053123;28;45882;-70
2021/07/01 05:01:38;;;;;;;;;20.25;14.75;;;;;16.55;66.01;101373.94;5052861;28;45527;-70
2021/07/01 05:04:06;;;;;;;;;15.00;13.50;;;;;16.56;65.90;101375.69;5053228;28;45363;-72
2021/07/01 05:06:32;;;;;;;;;22.25;16.25;;;;;16.60;65.74;101378.22;5053889;28;45442;-71
2021/07/01 05:08:57;;;;;;;;;18.00;17.50;;;;;16.61;65.96;101379.94;5053103;28;46024;-72
2021/07/01 05:11:22;;;;;;;;;18.00;15.25;;;;;16.62;65.88;101379.03;5053626;28;45344;-71
2021/07/01 05:13:48;;;;;;;;;17.25;16.00;;;;;16.66;65.99;101385.91;5053703;28;45512;-71
2021/07/01 05:16:13;;;;;;;;;19.75;16.00;;;;;16.68;65.76;101379.66;5053132;28;45354;-71
2021/07/01 05:18:38;;;;;;;;;22.25;17.50;;;;;16.70;65.63;101382.25;5052303;28;48325;-71
2021/07/01 05:21:04;;;;;;;;;16.25;16.00;;;;;16.72;65.37;101383.91;5050801;28;45427;-71
2021/07/01 05:23:29;;;;;;;;;17.50;16.25;;;;;16.77;65.46;101389.03;5052894;28;45414;-71
2021/07/01 05:25:54;;;;;;;;;17.25;16.25;;;;;16.81;65.52;101387.19;5052618;28;45374;-71
2021/07/01 05:28:20;;;;;;;;;17.25;15.75;;;;;16.82;64.98;101386.28;5052356;28;45527;-71
2021/07/01 05:30:46;;;;;;;;;17.00;16.25;;;;;16.83;65.23;101375.66;5053189;28;45397;-71
2021/07/01 05:33:11;;;;;;;;;17.50;14.25;;;;;16.85;65.04;101381.75;5052798;28;45466;-70
2021/07/01 05:35:37;;;;;;;;;21.25;19.50;;;;;16.88;64.98;101384.28;5051086;28;45628;-70
2021/07/01 05:38:02;;;;;;;;;19.50;18.00;;;;;16.93;65.19;101389.41;5052555;28;46206;-70
2021/07/01 05:40:28;;;;;;;;;22.50;15.00;;;;;16.96;64.83;101392.78;5052341;28;45504;-70
2021/07/01 05:42:53;;;;;;;;;20.00;18.50;;;;;16.96;64.78;101395.44;5052512;28;45410;-70
2021/07/01 05:45:19;;;;;;;;;20.25;17.00;;;;;16.97;64.53;101396.28;5053476;28;45569;-69
2021/07/01 05:47:45;;;;;;;;;19.50;18.25;;;;;16.98;64.58;101393.59;5052118;28;46353;-70
2021/07/01 05:50:11;;;;;;;;;17.75;15.75;;;;;17.04;64.81;101396.94;5051450;28;45264;-69
2021/07/01 05:52:42;;;;;;;;;21.50;20.25;;;;;17.12;64.60;101397.53;5052382;28;45582;-71
2021/07/01 05:55:08;;;;;;;;;22.50;16.50;;;;;17.21;64.46;101399.84;5051718;28;45638;-70
2021/07/01 05:57:34;;;;;;;;;25.75;21.00;;;;;17.29;64.38;101392.47;5052551;28;47330;-70
2021/07/01 05:59:59;;;;;;;;;26.50;21.00;;;;;17.41;64.29;101404.38;5046441;28;45331;-70
2021/07/01 06:02:25;;;;;;;;;22.25;16.50;;;;;17.53;63.77;101403.03;5053863;28;45426;-70
2021/07/01 06:04:51;;;;;;;;;24.00;21.75;;;;;17.58;63.58;101401.91;5054842;28;45446;-70
2021/07/01 06:07:23;;;;;;;;;24.00;19.75;;;;;17.65;62.90;101401.69;5055371;28;45956;-70
2021/07/01 06:09:52;;;;;;;;;19.50;15.50;;;;;17.73;62.48;101394.28;5055018;28;45349;-70
2021/07/01 06:12:17;;;;;;;;;15.50;13.50;;;;;17.76;62.35;101410.09;5055843;28;45326;-70
2021/07/01 06:14:44;;;;;;;;;16.75;16.25;;;;;17.77;62.04;101403.84;5055291;28;45603;-70
2021/07/01 06:17:11;;;;;;;;;19.00;15.50;;;;;17.79;62.09;101408.16;5054303;28;46146;-69
2021/07/01 06:19:37;;;;;;;;;18.25;16.75;;;;;17.81;61.81;101409.00;5054335;28;45472;-70
2021/07/01 06:22:02;;;;;;;;;22.25;19.50;;;;;17.80;62.07;101412.59;5054257;28;45400;-71
2021/07/01 06:24:28;;;;;;;;;17.00;14.50;;;;;17.85;61.33;101414.16;5054605;28;45445;-71
2021/07/01 06:26:54;;;;;;;;;13.25;13.25;;;;;17.86;60.97;101422.06;5054028;28;46422;-71
2021/07/01 06:29:19;;;;;;;;;21.50;17.50;;;;;17.87;60.71;101413.19;5054133;28;45403;-69
2021/07/01 06:31:45;;;;;;;;;17.00;14.75;;;;;17.95;61.12;101411.09;5054875;28;45446;-71
2021/07/01 06:34:13;;;;;;;;;21.50;17.75;;;;;18.08;61.29;101413.25;5054090;28;46055;-69
2021/07/01 06:36:41;;;;;;;;;15.25;15.00;;;;;18.19;60.80;101411.88;5052894;28;46382;-71
2021/07/01 06:39:07;;;;;;;;;19.00;16.25;;;;;18.33;60.25;101407.78;5046717;28;45764;-70
2021/07/01 06:41:36;;;;;;;;;20.25;16.75;;;;;18.45;60.02;101410.81;5053031;28;45940;-71
2021/07/01 06:44:02;;;;;;;;;13.50;11.50;;;;;18.51;59.30;101404.38;5053781;28;45341;-70
2021/07/01 06:46:31;;;;;;;;;15.50;13.75;;;;;18.57;59.15;101396.16;5053325;28;46214;-69
2021/07/01 06:48:57;;;;;;;;;19.50;16.75;;;;;18.68;58.77;101406.28;5053726;28;45374;-68
2021/07/01 06:51:23;;;;;;;;;18.00;17.00;;;;;18.77;58.33;101405.06;5054749;28;45577;-68
2021/07/01 06:53:49;;;;;;;;;23.67;22.67;;;;;18.83;58.56;101407.44;5053449;28;45346;-67
2021/07/01 06:56:15;;;;;;;;;21.25;17.25;;;;;18.89;58.10;101408.03;5054124;28;46500;-68
2021/07/01 06:58:42;;;;;;;;;18.75;16.75;;;;;18.97;58.31;101406.81;5054676;28;45450;-68
2021/07/01 07:01:08;;;;;;;;;19.25;15.00;;;;;19.09;57.40;101411.56;5054375;28;45434;-68
2021/07/01 07:03:33;;;;;;;;;25.75;21.50;;;;;19.13;57.22;101407.88;5054689;28;45528;-68
2021/07/01 07:06:01;;;;;;;;;14.00;12.50;;;;;19.12;56.75;101416.78;5053288;28;45400;-68
2021/07/01 07:08:27;;;;;;;;;21.25;19.75;;;;;19.06;56.56;101422.34;5053260;28;45491;-69
2021/07/01 07:10:52;;;;;;;;;18.25;18.25;;;;;18.94;55.51;101425.53;5050337;28;45411;-68
2021/07/01 07:13:19;;;;;;;;;17.25;15.75;;;;;18.80;55.67;101423.50;5052681;28;45430;-70
2021/07/01 07:15:45;;;;;;;;;24.50;20.50;;;;;18.65;56.36;101415.25;5053225;28;46071;-69
2021/07/01 07:18:24;;;;;;;;;29.25;23.50;;;;;18.62;56.82;101422.47;5053647;28;45185;-70
2021/07/01 07:20:59;;;;;;;;;28.25;25.25;;;;;18.55;57.06;101423.66;5053788;28;45446;-70
2021/07/01 07:23:31;;;;;;;;;21.75;19.75;;;;;18.49;57.04;101427.41;5053832;28;45520;-70
2021/07/01 07:25:58;;;;;;;;;28.25;27.00;;;;;18.43;57.35;101431.22;5052919;28;45556;-69
2021/07/01 07:28:25;;;;;;;;;29.50;26.00;;;;;18.43;57.67;101430.34;5053258;28;45445;-70
2021/07/01 07:30:56;;;;;;;;;24.00;17.00;;;;;18.44;57.68;101440.03;5053885;28;45449;-67
2021/07/01 07:33:27;;;;;;;;;25.75;22.00;;;;;18.44;57.64;101430.25;5054314;28;45507;-69
2021/07/01 07:35:52;;;;;;;;;26.75;22.50;;;;;18.45;57.28;101433.81;5049737;28;46379;-69
2021/07/01 07:38:19;;;;;;;;;29.75;21.75;;;;;18.44;57.02;101434.72;5046817;28;45572;-70
2021/07/01 07:40:45;;;;;;;;;22.50;19.50;;;;;18.49;57.34;101426.56;5053083;28;45593;-68
2021/07/01 07:43:13;;;;;;;;;21.00;17.25;;;;;18.56;57.58;101423.59;5053876;28;45447;-69
2021/07/01 07:45:39;;;;;;;;;26.25;20.25;;;;;18.65;57.93;101423.19;5049995;28;47336;-67
2021/07/01 07:48:04;;;;;;;;;22.75;20.00;;;;;18.77;57.35;101429.78;5052962;28;45522;-68
2021/07/01 07:50:30;;;;;;;;;23.50;23.50;;;;;18.80;56.81;101423.50;5053423;28;45526;-68
2021/07/01 07:52:59;;;;;;;;;24.25;22.00;;;;;18.83;57.36;101426.00;5054132;28;45481;-67
2021/07/01 07:55:29;;;;;;;;;29.00;25.50;;;;;18.91;57.62;101426.53;5053407;28;46067;-68
2021/07/01 07:57:56;;;;;;;;;26.00;25.00;;;;;19.02;57.15;101428.72;5052993;28;45636;-67
2021/07/01 08:00:26;;;;;;;;;26.25;25.25;;;;;19.16;57.08;101430.75;5053012;28;45578;-67
2021/07/01 08:02:55;;;;;;;;;26.25;20.00;;;;;19.32;57.35;101431.78;5052964;28;45420;-69
2021/07/01 08:05:24;;;;;;;;;34.25;30.00;;;;;19.54;56.14;101428.97;5053115;28;47267;-69
2021/07/01 08:07:52;;;;;;;;;25.25;21.25;;;;;19.72;55.43;101437.94;5052995;28;45431;-69
2021/07/01 08:10:20;;;;;;;;;24.25;22.50;;;;;19.84;55.09;101431.16;5052566;28;45448;-70
2021/07/01 08:12:50;;;;;;;;;22.75;20.00;;;;;19.95;54.99;101428.88;5051971;28;45475;-69
2021/07/01 08:15:19;;;;;;;;;25.75;21.50;;;;;20.09;54.18;101420.19;5051148;28;47243;-69
2021/07/01 08:17:52;;;;;;;;;24.50;21.75;;;;;20.14;54.49;101423.47;5050219;28;45418;-69
2021/07/01 08:20:20;;;;;;;;;28.25;25.00;;;;;20.20;53.87;101419.69;5051898;28;45390;-70
2021/07/01 08:22:48;;;;;;;;;33.50;31.50;;;;;20.22;54.12;101416.00;5052653;28;45593;-69
2021/07/01 08:25:15;;;;;;;;;29.75;26.75;;;;;20.28;54.63;101418.34;5052305;28;46403;-68
2021/07/01 08:27:42;;;;;;;;;31.00;27.50;;;;;20.41;54.46;101415.94;5052972;28;45408;-68
2021/07/01 08:30:09;;;;;;;;;27.25;23.50;;;;;20.55;53.73;101412.59;5052031;28;45411;-68
2021/07/01 08:32:36;;;;;;;;;21.50;20.25;;;;;20.74;53.30;101409.88;5052624;28;45426;-68
2021/07/01 08:35:03;;;;;;;;;27.00;24.75;;;;;20.84;53.12;101412.91;5052603;28;46209;-70
2021/07/01 08:37:29;;;;;;;;;20.00;19.75;;;;;20.84;51.68;101407.59;5052471;28;45400;-70
2021/07/01 08:40:01;;;;;;;;;24.75;23.25;;;;;20.76;51.88;101406.19;5052758;28;45275;-69
2021/07/01 08:42:32;;;;;;;;;22.25;21.25;;;;;20.72;52.40;101407.28;5050529;28;45567;-69
2021/07/01 08:45:04;;;;;;;;;20.75;19.25;;;;;20.69;52.69;101401.25;5052753;28;47163;-69
2021/07/01 08:47:32;;;;;;;;;29.75;24.00;;;;;20.71;52.85;101410.00;5051509;28;45313;-69
2021/07/01 08:49:59;;;;;;;;;21.00;20.00;;;;;20.80;52.76;101409.53;5052034;28;45379;-69
2021/07/01 08:52:46;;;;;;;;;21.25;21.25;;;;;20.91;52.30;101412.50;5051922;28;45663;-69
2021/07/01 08:55:18;;;;;;;;;22.25;20.00;;;;;21.00;51.17;101420.00;5035950;28;46287;-69
2021/07/01 08:57:49;;;;;;;;;22.25;22.25;;;;;21.05;51.09;101418.91;5047860;28;45501;-68
2021/07/01 09:00:16;;;;;;;;;25.50;25.25;;;;;21.13;51.51;101420.19;5051227;28;45245;-69
2021/07/01 09:02:50;;;;;;;;;25.75;24.75;;;;;21.29;50.99;101408.72;5052202;28;45275;-68
2021/07/01 09:05:18;;;;;;;;;30.50;26.25;;;;;21.48;51.12;101422.78;5051766;28;47302;-68
2021/07/01 09:07:52;;;;;;;;;22.25;19.50;;;;;21.54;49.94;101421.56;5051667;28;45453;-68
2021/07/01 09:10:18;;;;;;;;;31.50;23.00;;;;;21.59;50.62;101417.69;5036924;28;45637;-67
2021/07/01 09:12:58;;;;;;;;;15.25;15.00;;;;;21.91;50.09;101420.38;5052269;28;45434;-68
2021/07/01 09:15:26;;;;;;;;;23.75;20.75;;;;;22.25;49.85;101418.47;5051694;28;46238;-70
2021/07/01 09:17:53;;;;;;;;;26.75;22.25;;;;;22.52;49.10;101413.28;5051360;28;45238;-68
2021/07/01 09:20:47;;;;;;;;;21.75;21.75;;;;;22.84;48.68;101411.38;5051914;28;45319;-70
2021/07/01 09:23:13;;;;;;;;;24.50;20.75;;;;;23.18;47.49;101411.13;5051213;28;45505;-70
2021/07/01 09:25:41;;;;;;;;;38.50;32.25;;;;;23.44;47.61;101414.81;5051067;28;46828;-69
2021/07/01 09:28:06;;;;;;;;;27.75;25.75;;;;;23.68;47.24;101415.06;5051801;28;45767;-70
2021/07/01 09:30:33;;;;;;;;;24.25;18.50;;;;;23.88;44.75;101411.09;5053170;28;45324;-71
2021/07/01 09:33:02;;;;;;;;;22.75;20.50;;;;;23.98;45.66;101412.25;5052996;28;45465;-70
2021/07/01 09:35:30;;;;;;;;;24.75;21.75;;;;;24.09;43.92;101404.34;5051450;28;46339;-69
2021/07/01 09:37:59;;;;;;;;;24.75;19.75;;;;;24.19;44.27;101406.41;5054303;28;45560;-70
2021/07/01 09:40:25;;;;;;;;;28.75;24.50;;;;;24.37;44.20;101399.81;5051466;28;45315;-68
2021/07/01 09:42:56;;;;;;;;;34.00;28.00;;;;;24.54;43.38;101404.91;5055094;28;45327;-68
2021/07/01 09:45:24;;;;;;;;;36.25;28.00;;;;;24.72;43.95;101401.94;5053696;28;46715;-68
2021/07/01 09:48:18;;;;;;;;;25.25;21.75;;;;;24.99;43.08;101404.50;5054872;28;45327;-69
2021/07/01 09:50:46;;;;;;;;;21.75;18.50;;;;;25.23;42.66;101415.34;5053743;28;47343;-68
2021/07/01 09:53:27;;;;;;;;;17.50;15.50;;;;;25.52;41.51;101415.06;5054822;28;45290;-68
2021/07/01 09:55:54;;;;;;;;;23.50;20.25;;;;;25.69;41.51;101420.03;5053389;28;46368;-69
2021/07/01 09:58:21;;;;;;;;;21.00;18.00;;;;;25.90;40.45;101414.09;5054513;28;45428;-69
2021/07/01 10:00:50;;;;;;;;;18.00;17.00;;;;;25.97;40.14;101416.22;5055500;28;45354;-68
2021/07/01 10:03:16;;;;;;;;;21.75;18.25;;;;;26.19;39.82;101412.75;5054498;28;45481;-69
2021/07/01 10:05:41;;;;;;;;;16.00;14.75;;;;;26.44;39.72;101408.22;5053213;28;46542;-69
2021/07/01 10:08:07;;;;;;;;;19.00;18.00;;;;;26.70;39.27;101398.19;5054302;28;45448;-69
2021/07/01 10:11:02;;;;;;;;;19.75;17.25;;;;;26.98;38.87;101414.81;5054602;28;45358;-69
2021/07/01 10:13:27;;;;;;;;;20.00;17.25;;;;;26.97;38.61;101403.22;5031739;28;45391;-68
2021/07/01 10:15:53;;;;;;;;;20.00;16.00;;;;;26.95;37.27;101405.16;5054786;28;45422;-69
2021/07/01 10:18:20;;;;;;;;;22.25;22.25;;;;;26.94;38.19;101403.47;5055343;28;45485;-68
2021/07/01 10:20:49;;;;;;;;;19.00;18.75;;;;;27.02;37.16;101409.06;5055040;28;45538;-67
2021/07/01 10:23:27;;;;;;;;;19.00;18.50;;;;;26.89;37.90;101406.53;5054338;28;45525;-69
2021/07/01 10:26:08;;;;;;;;;28.25;24.25;;;;;26.72;38.41;101412.38;5053805;28;45284;-68
2021/07/01 10:28:35;;;;;;;;;23.00;21.00;;;;;26.53;38.33;101410.22;5054023;28;45615;-69
2021/07/01 10:31:05;;;;;;;;;20.50;20.50;;;;;26.41;38.41;101406.66;5054598;28;45388;-69
2021/07/01 10:33:36;;;;;;;;;22.25;20.00;;;;;26.30;38.10;101403.06;5055270;28;45195;-69
2021/07/01 10:36:04;;;;;;;;;26.00;23.00;;;;;26.09;38.85;101410.91;5054153;28;45429;-70
2021/07/01 10:38:50;;;;;;;;;25.75;21.25;;;;;25.91;39.59;101413.13;5054229;28;45282;-69
2021/07/01 10:41:38;;;;;;;;;18.75;17.50;;;;;25.73;39.28;101418.00;5054210;28;45345;-69
2021/07/01 10:44:05;;;;;;;;;21.75;18.25;;;;;25.57;39.86;101410.22;5054154;28;45548;-69
2021/07/01 10:46:45;;;;;;;;;20.25;19.00;;;;;25.45;39.48;101413.78;5054551;28;46974;-69
2021/07/01 10:49:12;;;;;;;;;26.25;26.25;;;;;25.21;40.16;101417.25;5037620;28;45293;-69
2021/07/01 10:51:53;;;;;;;;;22.50;22.50;;;;;25.12;40.68;101416.06;5055187;28;45337;-69
2021/07/01 10:54:18;;;;;;;;;23.75;23.75;;;;;25.13;40.94;101415.09;5054493;28;45561;-69
2021/07/01 10:56:45;;;;;;;;;25.50;22.00;;;;;25.18;40.59;101404.94;5054212;28;45457;-70
2021/07/01 10:59:13;;;;;;;;;22.00;19.75;;;;;25.22;40.89;101416.31;5054270;28;45438;-69
2021/07/01 11:01:45;;;;;;;;;21.50;19.75;;;;;25.20;40.34;101416.41;5054162;28;45439;-69
2021/07/01 11:04:12;;;;;;;;;22.00;20.50;;;;;25.29;40.75;101412.22;5037864;28;45491;-69
2021/07/01 11:06:41;;;;;;;;;19.25;18.25;;;;;25.40;40.68;101411.44;5054255;28;47428;-70
2021/07/01 11:09:09;;;;;;;;;31.00;25.50;;;;;25.43;40.20;101420.13;5051626;28;45439;-71
2021/07/01 11:11:37;;;;;;;;;24.50;24.50;;;;;25.36;40.94;101420.66;5053612;28;45452;-69
2021/07/01 11:14:07;;;;;;;;;28.75;22.75;;;;;25.36;40.40;101418.84;5053809;28;45236;-71